createdAt,value
2018-05-24T00:01:20.000Z,100812
2018-05-24T00:02:35.000Z,100805
2018-05-24T00:03:35.000Z,100809
2018-05-24T00:05:35.000Z,100809
2018-05-24T00:07:20.000Z,100810
2018-05-24T00:08:35.000Z,100813
2018-05-24T00:10:05.000Z,100729
2018-05-24T00:11:35.000Z,100809
2018-05-24T00:13:35.000Z,100813
2018-05-24T00:15:35.000Z,100811
2018-05-24T00:17:20.000Z,100813
2018-05-24T00:18:35.000Z,100810
2018-05-24T00:20:35.000Z,100812
2018-05-24T00:22:35.000Z,100802
2018-05-24T00:24:35.000Z,100804
2018-05-24T00:25:35.000Z,100806
2018-05-24T00:26:35.000Z,100812
2018-05-24T00:28:35.000Z,100806
2018-05-24T00:29:35.000Z,100803
2018-05-24T00:30:35.000Z,100804
2018-05-24T00:32:35.000Z,100804
2018-05-24T00:33:35.000Z,100795
2018-05-24T00:35:35.000Z,100791
2018-05-24T00:37:35.000Z,100794
2018-05-24T00:38:35.000Z,100794
2018-05-24T00:40:35.000Z,100792
2018-05-24T00:42:35.000Z,100791
2018-05-24T00:44:35.000Z,100797
2018-05-24T00:46:35.000Z,100791
2018-05-24T00:48:35.000Z,100792
2018-05-24T00:50:35.000Z,100791
2018-05-24T00:52:35.000Z,100798
2018-05-24T00:53:35.000Z,100792
2018-05-24T00:54:35.000Z,100794
2018-05-24T00:56:35.000Z,100797
2018-05-24T00:58:20.000Z,100796
2018-05-24T00:59:35.000Z,100794
2018-05-24T01:01:35.000Z,100790
2018-05-24T01:03:35.000Z,100788
2018-05-24T01:05:35.000Z,100793
2018-05-24T01:07:35.000Z,100795
2018-05-24T01:09:35.000Z,100789
2018-05-24T01:11:35.000Z,100795
2018-05-24T01:13:20.000Z,100793
2018-05-24T01:14:35.000Z,100794
2018-05-24T01:16:35.000Z,100785
2018-05-24T01:18:35.000Z,100794
2018-05-24T01:20:35.000Z,100795
2018-05-24T01:22:35.000Z,100790
2018-05-24T01:23:35.000Z,100790
2018-05-24T01:25:20.000Z,100713
2018-05-24T01:26:35.000Z,100786
2018-05-24T01:28:35.000Z,100787
2018-05-24T01:29:35.000Z,100783
2018-05-24T01:31:35.000Z,100786
2018-05-24T01:32:35.000Z,100775
2018-05-24T01:34:20.000Z,100780
2018-05-24T01:35:35.000Z,100785
2018-05-24T01:37:35.000Z,100789
2018-05-24T01:39:35.000Z,100782
2018-05-24T01:41:35.000Z,100791
2018-05-24T01:43:35.000Z,100778
2018-05-24T01:44:35.000Z,100782
2018-05-24T01:46:35.000Z,100780
2018-05-24T01:47:35.000Z,100781
2018-05-24T01:49:35.000Z,100780
2018-05-24T01:50:35.000Z,100781
2018-05-24T01:51:35.000Z,100782
2018-05-24T01:53:35.000Z,100782
2018-05-24T01:55:35.000Z,100780
2018-05-24T01:57:35.000Z,100777
2018-05-24T01:58:35.000Z,100775
2018-05-24T02:00:35.000Z,100776
2018-05-24T02:02:35.000Z,100775
2018-05-24T02:04:20.000Z,100779
2018-05-24T02:05:35.000Z,100775
2018-05-24T02:07:35.000Z,100779
2018-05-24T02:09:35.000Z,100761
2018-05-24T02:10:35.000Z,100758
2018-05-24T02:11:35.000Z,100764
2018-05-24T02:12:35.000Z,100758
2018-05-24T02:14:35.000Z,100763
2018-05-24T02:15:35.000Z,100762
2018-05-24T02:17:20.000Z,100768
2018-05-24T02:18:35.000Z,100764
2018-05-24T02:19:35.000Z,100763
2018-05-24T02:21:35.000Z,100767
2018-05-24T02:23:35.000Z,100759
2018-05-24T02:25:20.000Z,100760
2018-05-24T02:26:35.000Z,100758
2018-05-24T02:27:35.000Z,100753
2018-05-24T02:29:35.000Z,100753
2018-05-24T02:31:35.000Z,100755
2018-05-24T02:33:20.000Z,100751
2018-05-24T02:34:35.000Z,100755
2018-05-24T02:36:35.000Z,100748
2018-05-24T02:38:20.000Z,100755
2018-05-24T02:39:35.000Z,100753
2018-05-24T02:41:35.000Z,100749
2018-05-24T02:43:20.000Z,100751
2018-05-24T02:45:35.000Z,100747
2018-05-24T02:46:35.000Z,100746
2018-05-24T02:48:35.000Z,100740
2018-05-24T02:50:35.000Z,100757
2018-05-24T02:52:35.000Z,100751
2018-05-24T02:54:35.000Z,100752
2018-05-24T02:56:35.000Z,100754
2018-05-24T02:57:35.000Z,100763
2018-05-24T02:58:35.000Z,100759
2018-05-24T02:59:35.000Z,100760
2018-05-24T03:00:35.000Z,100759
2018-05-24T03:02:20.000Z,100764
2018-05-24T03:03:35.000Z,100759
2018-05-24T03:05:20.000Z,100756
2018-05-24T03:06:35.000Z,100760
2018-05-24T03:08:35.000Z,100768
2018-05-24T03:09:35.000Z,100765
2018-05-24T03:11:35.000Z,100772
2018-05-24T03:12:35.000Z,100772
2018-05-24T03:14:35.000Z,100771
2018-05-24T03:15:35.000Z,100771
2018-05-24T03:16:35.000Z,100778
2018-05-24T03:18:35.000Z,100773
2018-05-24T03:20:35.000Z,100773
2018-05-24T03:22:35.000Z,100767
2018-05-24T03:23:35.000Z,100769
2018-05-24T03:25:35.000Z,100771
2018-05-24T03:26:35.000Z,100771
2018-05-24T03:28:35.000Z,100769
2018-05-24T03:29:35.000Z,100769
2018-05-24T03:31:05.000Z,100767
2018-05-24T03:32:35.000Z,100763
2018-05-24T03:34:35.000Z,100766
2018-05-24T03:36:35.000Z,100760
2018-05-24T03:37:35.000Z,100759
2018-05-24T03:39:35.000Z,100756
2018-05-24T03:41:35.000Z,100758
2018-05-24T03:43:35.000Z,100749
2018-05-24T03:45:35.000Z,100756
2018-05-24T03:47:20.000Z,100747
2018-05-24T03:48:35.000Z,100747
2018-05-24T03:50:35.000Z,100748
2018-05-24T03:52:35.000Z,100748
2018-05-24T03:54:35.000Z,100745
2018-05-24T03:56:35.000Z,100745
2018-05-24T03:58:35.000Z,100750
2018-05-24T04:00:35.000Z,100754
2018-05-24T04:02:04.000Z,100746
2018-05-24T04:03:35.000Z,100750
2018-05-24T04:04:35.000Z,100751
2018-05-24T04:06:35.000Z,100746
2018-05-24T04:07:35.000Z,100744
2018-05-24T04:09:35.000Z,100742
2018-05-24T04:10:35.000Z,100742
2018-05-24T04:12:35.000Z,100747
2018-05-24T04:14:35.000Z,100750
2018-05-24T04:15:35.000Z,100741
2018-05-24T04:17:35.000Z,100742
2018-05-24T04:18:35.000Z,100738
2018-05-24T04:20:35.000Z,100747
2018-05-24T04:22:35.000Z,100746
2018-05-24T04:23:35.000Z,100747
2018-05-24T04:25:35.000Z,100743
2018-05-24T04:27:35.000Z,100751
2018-05-24T04:28:35.000Z,100746
2018-05-24T04:29:35.000Z,100748
2018-05-24T04:31:35.000Z,100747
2018-05-24T04:32:35.000Z,100743
2018-05-24T04:34:35.000Z,100736
2018-05-24T04:35:35.000Z,100745
2018-05-24T04:37:35.000Z,100747
2018-05-24T04:39:35.000Z,100747
2018-05-24T04:41:19.000Z,100746
2018-05-24T04:42:35.000Z,100745
2018-05-24T04:43:35.000Z,100742
2018-05-24T04:44:35.000Z,100742
2018-05-24T04:46:35.000Z,100743
2018-05-24T04:47:35.000Z,100750
2018-05-24T04:48:35.000Z,100742
2018-05-24T04:49:35.000Z,100746
2018-05-24T04:51:35.000Z,100757
2018-05-24T04:53:19.000Z,100744
2018-05-24T04:54:35.000Z,100743
2018-05-24T04:55:35.000Z,100753
2018-05-24T04:57:35.000Z,100754
2018-05-24T04:59:35.000Z,100756
2018-05-24T05:01:35.000Z,100760
2018-05-24T05:03:20.000Z,100761
2018-05-24T05:04:35.000Z,100761
2018-05-24T05:05:35.000Z,100770
2018-05-24T05:06:35.000Z,100766
2018-05-24T05:07:35.000Z,100767
2018-05-24T05:09:20.000Z,100760
2018-05-24T05:10:35.000Z,100757
2018-05-24T05:11:35.000Z,100759
2018-05-24T05:13:35.000Z,100766
2018-05-24T05:15:35.000Z,100763
2018-05-24T05:18:54.000Z,100757
2018-05-24T05:20:53.000Z,100755
2018-05-24T05:22:38.000Z,100754
2018-05-24T05:24:53.000Z,100752
2018-05-24T05:25:53.000Z,100745
2018-05-24T05:26:53.000Z,100747
2018-05-24T05:28:53.000Z,100749
2018-05-24T05:29:53.000Z,100747
2018-05-24T05:31:53.000Z,100748
2018-05-24T05:33:53.000Z,100749
2018-05-24T05:34:53.000Z,100746
2018-05-24T05:36:53.000Z,100746
2018-05-24T05:38:53.000Z,100749
2018-05-24T05:39:53.000Z,100747
2018-05-24T05:41:53.000Z,100741
2018-05-24T05:43:53.000Z,100743
2018-05-24T05:45:53.000Z,100738
2018-05-24T05:46:53.000Z,100742
2018-05-24T05:48:38.000Z,100746
2018-05-24T05:49:53.000Z,100742
2018-05-24T05:50:53.000Z,100738
2018-05-24T05:52:53.000Z,100732
2018-05-24T05:53:53.000Z,100735
2018-05-24T05:55:53.000Z,100737
2018-05-24T05:57:38.000Z,100737
2018-05-24T05:58:54.000Z,100730
2018-05-24T06:00:54.000Z,100734
2018-05-24T06:01:54.000Z,100732
2018-05-24T06:03:54.000Z,100729
2018-05-24T06:05:54.000Z,100728
2018-05-24T06:06:54.000Z,100725
2018-05-24T06:08:54.000Z,100728
2018-05-24T06:09:54.000Z,100722
2018-05-24T06:11:54.000Z,100722
2018-05-24T06:13:54.000Z,100718
2018-05-24T06:15:54.000Z,100719
2018-05-24T06:17:54.000Z,100717
2018-05-24T06:19:54.000Z,100714
2018-05-24T06:21:39.000Z,100713
2018-05-24T06:22:54.000Z,100718
2018-05-24T06:23:54.000Z,100715
2018-05-24T06:25:54.000Z,100719
2018-05-24T06:27:54.000Z,100720
2018-05-24T06:29:39.000Z,100722
2018-05-24T06:30:54.000Z,100722
2018-05-24T06:32:54.000Z,100720
2018-05-24T06:33:54.000Z,100719
2018-05-24T06:35:54.000Z,100722
2018-05-24T06:36:54.000Z,100719
2018-05-24T06:38:54.000Z,100722
2018-05-24T06:40:39.000Z,100723
2018-05-24T06:41:54.000Z,100722
2018-05-24T06:43:54.000Z,100725
2018-05-24T06:44:54.000Z,100725
2018-05-24T06:45:54.000Z,100724
2018-05-24T06:47:39.000Z,100735
2018-05-24T06:48:54.000Z,100735
2018-05-24T06:50:54.000Z,100735
2018-05-24T06:52:54.000Z,100740
2018-05-24T06:53:54.000Z,100733
2018-05-24T06:55:39.000Z,100738
2018-05-24T06:56:54.000Z,100737
2018-05-24T06:57:54.000Z,100742
2018-05-24T06:59:39.000Z,100740
2018-05-24T07:00:54.000Z,100747
2018-05-24T07:02:54.000Z,100740
2018-05-24T07:04:54.000Z,100741
2018-05-24T07:06:38.000Z,100741
2018-05-24T07:07:54.000Z,100744
2018-05-24T07:08:54.000Z,100751
2018-05-24T07:10:54.000Z,100752
2018-05-24T07:12:39.000Z,100741
2018-05-24T07:13:54.000Z,100746
2018-05-24T07:14:54.000Z,100745
2018-05-24T07:15:54.000Z,100748
2018-05-24T07:17:54.000Z,100745
2018-05-24T07:18:54.000Z,100753
2018-05-24T07:19:54.000Z,100747
2018-05-24T07:20:54.000Z,100745
2018-05-24T07:22:54.000Z,100753
2018-05-24T07:23:54.000Z,100751
2018-05-24T07:25:38.000Z,100749
2018-05-24T07:26:54.000Z,100744
2018-05-24T07:27:54.000Z,100748
2018-05-24T07:29:38.000Z,100746
2018-05-24T07:30:54.000Z,100747
2018-05-24T07:32:54.000Z,100748
2018-05-24T07:34:39.000Z,100748
2018-05-24T07:35:54.000Z,100748
2018-05-24T07:37:54.000Z,100746
2018-05-24T07:38:54.000Z,100743
2018-05-24T07:39:54.000Z,100747
2018-05-24T07:40:54.000Z,100743
2018-05-24T07:42:54.000Z,100737
2018-05-24T07:44:54.000Z,100736
2018-05-24T07:45:54.000Z,100739
2018-05-24T07:47:54.000Z,100735
2018-05-24T07:49:54.000Z,100734
2018-05-24T07:51:54.000Z,100733
2018-05-24T07:53:54.000Z,100728
2018-05-24T07:54:54.000Z,100729
2018-05-24T07:56:54.000Z,100729
2018-05-24T07:58:54.000Z,100726
2018-05-24T07:59:54.000Z,100722
2018-05-24T08:01:54.000Z,100719
2018-05-24T08:03:38.000Z,100726
2018-05-24T08:04:54.000Z,100723
2018-05-24T08:05:54.000Z,100721
2018-05-24T08:07:54.000Z,100724
2018-05-24T08:08:54.000Z,100719
2018-05-24T08:09:54.000Z,100720
2018-05-24T08:11:38.000Z,100713
2018-05-24T08:12:54.000Z,100717
2018-05-24T08:13:54.000Z,100719
2018-05-24T08:14:54.000Z,100721
2018-05-24T08:15:54.000Z,100722
2018-05-24T08:16:54.000Z,100723
2018-05-24T08:18:54.000Z,100724
2018-05-24T08:20:54.000Z,100723
2018-05-24T08:21:54.000Z,100725
2018-05-24T08:23:38.000Z,100728
2018-05-24T08:24:54.000Z,100725
2018-05-24T08:26:23.000Z,100726
2018-05-24T08:27:54.000Z,100717
2018-05-24T08:29:54.000Z,100725
2018-05-24T08:31:54.000Z,100722
2018-05-24T08:32:54.000Z,100715
2018-05-24T08:34:54.000Z,100719
2018-05-24T08:35:54.000Z,100722
2018-05-24T08:37:38.000Z,100717
2018-05-24T08:38:54.000Z,100718
2018-05-24T08:39:54.000Z,100712
2018-05-24T08:41:54.000Z,100709
2018-05-24T08:43:54.000Z,100714
2018-05-24T08:45:54.000Z,100712
2018-05-24T08:47:54.000Z,100715
2018-05-24T08:49:54.000Z,100704
2018-05-24T08:51:54.000Z,100704
2018-05-24T08:53:54.000Z,100703
2018-05-24T08:55:54.000Z,100702
2018-05-24T08:56:54.000Z,100702
2018-05-24T08:58:38.000Z,100706
2018-05-24T08:59:54.000Z,100704
2018-05-24T09:01:54.000Z,100711
2018-05-24T09:03:38.000Z,100705
2018-05-24T09:04:54.000Z,100708
2018-05-24T09:05:54.000Z,100708
2018-05-24T09:07:54.000Z,100712
2018-05-24T09:09:53.000Z,100708
2018-05-24T09:11:53.000Z,100705
2018-05-24T09:13:38.000Z,100707
2018-05-24T09:14:53.000Z,100704
2018-05-24T09:16:53.000Z,100714
2018-05-24T09:17:53.000Z,100705
2018-05-24T09:19:53.000Z,100709
2018-05-24T09:20:53.000Z,100707
2018-05-24T09:22:53.000Z,100706
2018-05-24T09:24:53.000Z,100707
2018-05-24T09:26:53.000Z,100712
2018-05-24T09:28:53.000Z,100714
2018-05-24T09:30:53.000Z,100708
2018-05-24T09:32:53.000Z,100706
2018-05-24T09:34:53.000Z,100706
2018-05-24T09:36:53.000Z,100703
2018-05-24T09:38:53.000Z,100702
2018-05-24T09:39:53.000Z,100701
2018-05-24T09:41:53.000Z,100704
2018-05-24T09:43:53.000Z,100703
2018-05-24T09:45:53.000Z,100697
2018-05-24T09:47:38.000Z,100694
2018-05-24T09:48:53.000Z,100698
2018-05-24T09:50:53.000Z,100695
2018-05-24T09:52:53.000Z,100702
2018-05-24T09:54:53.000Z,100697
2018-05-24T09:56:53.000Z,100695
2018-05-24T09:57:53.000Z,100693
2018-05-24T09:59:38.000Z,100688
2018-05-24T10:00:53.000Z,100687
2018-05-24T10:02:53.000Z,100690
2018-05-24T10:03:53.000Z,100684
2018-05-24T10:05:38.000Z,100683
2018-05-24T10:07:53.000Z,100681
2018-05-24T10:08:53.000Z,100681
2018-05-24T10:10:53.000Z,100675
2018-05-24T10:12:53.000Z,100679
2018-05-24T10:14:53.000Z,100677
2018-05-24T10:15:53.000Z,100680
2018-05-24T10:16:53.000Z,100675
2018-05-24T10:18:53.000Z,100676
2018-05-24T10:19:53.000Z,100668
2018-05-24T10:24:53.000Z,100679
2018-05-24T10:28:39.000Z,100677
2018-05-24T10:30:10.000Z,100673
2018-05-24T10:31:25.000Z,100676
2018-05-24T10:33:25.000Z,100667
2018-05-24T10:35:25.000Z,100670
2018-05-24T10:37:10.000Z,100666
2018-05-24T10:38:25.000Z,100672
2018-05-24T10:40:25.000Z,100664
2018-05-24T10:42:25.000Z,100664
2018-05-24T10:44:10.000Z,100665
2018-05-24T10:45:25.000Z,100655
2018-05-24T10:47:25.000Z,100658
2018-05-24T10:48:25.000Z,100657
2018-05-24T10:50:25.000Z,100650
2018-05-24T10:52:25.000Z,100648
2018-05-24T10:54:25.000Z,100654
2018-05-24T10:56:25.000Z,100647
2018-05-24T10:58:25.000Z,100651
2018-05-24T11:00:25.000Z,100646
2018-05-24T11:02:25.000Z,100651
2018-05-24T11:03:25.000Z,100648
2018-05-24T11:05:25.000Z,100651
2018-05-24T11:07:25.000Z,100647
2018-05-24T11:09:25.000Z,100651
2018-05-24T11:10:25.000Z,100640
2018-05-24T11:12:25.000Z,100642
2018-05-24T11:14:25.000Z,100630
2018-05-24T11:15:25.000Z,100621
2018-05-24T11:17:25.000Z,100617
2018-05-24T11:19:25.000Z,100615
2018-05-24T11:20:25.000Z,100612
2018-05-24T11:21:25.000Z,100614
2018-05-24T11:23:25.000Z,100616
2018-05-24T11:24:25.000Z,100625
2018-05-24T11:26:25.000Z,100609
2018-05-24T11:27:54.000Z,100620
2018-05-24T11:29:25.000Z,100618
2018-05-24T11:31:25.000Z,100618
2018-05-24T11:32:25.000Z,100624
2018-05-24T11:33:25.000Z,100613
2018-05-24T11:35:25.000Z,100615
2018-05-24T11:36:25.000Z,100618
2018-05-24T11:38:25.000Z,100614
2018-05-24T11:40:25.000Z,100617
2018-05-24T11:42:25.000Z,100610
2018-05-24T11:43:25.000Z,100609
2018-05-24T11:45:25.000Z,100611
2018-05-24T11:46:25.000Z,100614
2018-05-24T11:48:10.000Z,100611
2018-05-24T11:49:25.000Z,100604
2018-05-24T11:50:25.000Z,100606
2018-05-24T11:52:25.000Z,100605
2018-05-24T11:54:25.000Z,100607
2018-05-24T11:56:10.000Z,100602
2018-05-24T11:57:25.000Z,100606
2018-05-24T11:59:25.000Z,100595
2018-05-24T12:00:25.000Z,100598
2018-05-24T12:02:25.000Z,100599
2018-05-24T12:03:25.000Z,100597
2018-05-24T12:05:25.000Z,100608
2018-05-24T12:07:25.000Z,100594
2018-05-24T12:08:25.000Z,100597
2018-05-24T12:09:25.000Z,100600
2018-05-24T12:11:10.000Z,100588
2018-05-24T12:12:25.000Z,100602
2018-05-24T12:14:25.000Z,100594
2018-05-24T12:16:25.000Z,100593
2018-05-24T12:18:25.000Z,100598
2018-05-24T12:20:26.000Z,100588
2018-05-24T12:22:26.000Z,100589
2018-05-24T12:24:26.000Z,100590
2018-05-24T12:26:10.000Z,100591
2018-05-24T12:27:26.000Z,100590
2018-05-24T12:29:26.000Z,100596
2018-05-24T12:30:26.000Z,100585
2018-05-24T12:32:26.000Z,100591
2018-05-24T12:33:26.000Z,100593
2018-05-24T12:34:26.000Z,100598
2018-05-24T12:47:25.000Z,100604
2018-05-24T12:49:11.000Z,100607
2018-05-24T12:51:11.000Z,100599
2018-05-24T12:52:11.000Z,100600
2018-05-24T12:54:11.000Z,100601
2018-05-24T12:56:11.000Z,100596
2018-05-24T12:58:11.000Z,100602
2018-05-24T13:00:11.000Z,100604
2018-05-24T13:01:55.000Z,100598
2018-05-24T13:03:11.000Z,100596
2018-05-24T13:04:11.000Z,100604
2018-05-24T13:05:11.000Z,100598
2018-05-24T13:06:40.000Z,100602
2018-05-24T13:08:11.000Z,100589
2018-05-24T13:10:11.000Z,100592
2018-05-24T13:12:11.000Z,100592
2018-05-24T13:14:11.000Z,100589
2018-05-24T13:16:11.000Z,100589
2018-05-24T13:18:11.000Z,100585
2018-05-24T13:20:11.000Z,100589
2018-05-24T13:22:10.000Z,100585
2018-05-24T13:23:10.000Z,100581
2018-05-24T13:25:10.000Z,100589
2018-05-24T13:27:10.000Z,100587
2018-05-24T13:29:10.000Z,100588
2018-05-24T13:31:10.000Z,100586
2018-05-24T13:33:10.000Z,100588
2018-05-24T13:35:10.000Z,100580
2018-05-24T13:37:10.000Z,100588
2018-05-24T13:38:39.000Z,100590
2018-05-24T13:40:10.000Z,100588
2018-05-24T13:42:10.000Z,100582
2018-05-24T13:44:10.000Z,100576
2018-05-24T13:45:10.000Z,100584
2018-05-24T13:46:10.000Z,100584
2018-05-24T13:48:10.000Z,100580
2018-05-24T13:49:10.000Z,100588
2018-05-24T13:50:55.000Z,100581
2018-05-24T13:52:10.000Z,100581
2018-05-24T13:53:55.000Z,100585
2018-05-24T13:55:10.000Z,100574
2018-05-24T13:56:10.000Z,100579
2018-05-24T13:58:10.000Z,100576
2018-05-24T13:59:10.000Z,100581
2018-05-24T14:01:10.000Z,100579
2018-05-24T14:03:10.000Z,100575
2018-05-24T14:04:55.000Z,100583
2018-05-24T14:06:10.000Z,100573
2018-05-24T14:08:10.000Z,100581
2018-05-24T14:10:10.000Z,100576
2018-05-24T14:11:55.000Z,100577
2018-05-24T14:13:10.000Z,100570
2018-05-24T14:14:10.000Z,100569
2018-05-24T14:16:10.000Z,100571
2018-05-24T14:17:10.000Z,100572
2018-05-24T14:18:10.000Z,100573
2018-05-24T14:20:10.000Z,100570
2018-05-24T14:22:10.000Z,100563
2018-05-24T14:24:10.000Z,100561
2018-05-24T14:25:10.000Z,100559
2018-05-24T14:26:11.000Z,100553
2018-05-24T14:28:11.000Z,100560
2018-05-24T14:29:11.000Z,100559
2018-05-24T14:31:11.000Z,100559
2018-05-24T14:33:11.000Z,100559
2018-05-24T14:34:55.000Z,100562
2018-05-24T14:36:11.000Z,100558
2018-05-24T14:38:11.000Z,100555
2018-05-24T14:40:11.000Z,100552
2018-05-24T14:42:11.000Z,100550
2018-05-24T14:43:11.000Z,100547
2018-05-24T14:45:11.000Z,100555
2018-05-24T14:46:55.000Z,100545
2018-05-24T14:48:11.000Z,100550
2018-05-24T14:50:11.000Z,100555
2018-05-24T14:51:11.000Z,100545
2018-05-24T14:52:11.000Z,100550
2018-05-24T14:53:11.000Z,100544
2018-05-24T14:54:55.000Z,100545
2018-05-24T14:55:55.000Z,100545
2018-05-24T14:57:11.000Z,100547
2018-05-24T14:59:11.000Z,100538
2018-05-24T15:01:11.000Z,100540
2018-05-24T15:03:11.000Z,100532
2018-05-24T15:05:11.000Z,100542
2018-05-24T15:07:11.000Z,100531
2018-05-24T15:08:11.000Z,100527
2018-05-24T15:10:11.000Z,100532
2018-05-24T15:11:11.000Z,100534
2018-05-24T15:12:11.000Z,100527
2018-05-24T15:14:11.000Z,100526
2018-05-24T15:16:11.000Z,100524
2018-05-24T15:17:11.000Z,100526
2018-05-24T15:19:11.000Z,100526
2018-05-24T15:21:11.000Z,100522
2018-05-24T15:23:11.000Z,100534
2018-05-24T15:25:11.000Z,100528
2018-05-24T15:26:40.000Z,100528
2018-05-24T15:28:11.000Z,100527
2018-05-24T15:30:11.000Z,100526
2018-05-24T15:32:11.000Z,100533
2018-05-24T15:34:11.000Z,100524
2018-05-24T15:35:11.000Z,100521
2018-05-24T15:36:55.000Z,100524
2018-05-24T15:38:11.000Z,100529
2018-05-24T15:39:11.000Z,100530
2018-05-24T15:40:40.000Z,100529
2018-05-24T15:42:11.000Z,100522
2018-05-24T15:44:11.000Z,100519
2018-05-24T15:45:55.000Z,100522
2018-05-24T15:47:11.000Z,100520
2018-05-24T15:49:11.000Z,100523
2018-05-24T15:50:55.000Z,100517
2018-05-24T15:52:11.000Z,100521
2018-05-24T15:53:11.000Z,100518
2018-05-24T15:55:11.000Z,100516
2018-05-24T15:56:11.000Z,100517
2018-05-24T15:57:11.000Z,100521
2018-05-24T15:59:11.000Z,100520
2018-05-24T16:01:11.000Z,100521
2018-05-24T16:03:11.000Z,100517
2018-05-24T16:05:11.000Z,100519
2018-05-24T16:07:11.000Z,100514
2018-05-24T16:09:11.000Z,100511
2018-05-24T16:11:11.000Z,100516
2018-05-24T16:12:11.000Z,100517
2018-05-24T16:13:11.000Z,100517
2018-05-24T16:14:55.000Z,100517
2018-05-24T16:16:11.000Z,100524
2018-05-24T16:18:11.000Z,100515
2018-05-24T16:19:55.000Z,100521
2018-05-24T16:21:11.000Z,100517
2018-05-24T16:22:11.000Z,100514
2018-05-24T16:24:11.000Z,100519
2018-05-24T16:25:11.000Z,100513
2018-05-24T16:27:11.000Z,100513
2018-05-24T16:28:11.000Z,100510
2018-05-24T16:30:11.000Z,100502
2018-05-24T16:31:55.000Z,100505
2018-05-24T16:33:10.000Z,100508
2018-05-24T16:35:10.000Z,100503
2018-05-24T16:36:10.000Z,100505
2018-05-24T16:37:10.000Z,100509
2018-05-24T16:39:10.000Z,100503
2018-05-24T16:41:10.000Z,100500
2018-05-24T16:43:10.000Z,100499
2018-05-24T16:45:10.000Z,100498
2018-05-24T16:46:10.000Z,100492
2018-05-24T16:47:55.000Z,100493
2018-05-24T16:49:10.000Z,100498
2018-05-24T16:51:10.000Z,100492
2018-05-24T16:52:10.000Z,100495
2018-05-24T16:54:10.000Z,100497
2018-05-24T16:55:10.000Z,100491
2018-05-24T16:57:10.000Z,100489
2018-05-24T16:59:10.000Z,100492
2018-05-24T17:00:10.000Z,100491
2018-05-24T17:02:10.000Z,100490
2018-05-24T17:03:10.000Z,100494
2018-05-24T17:05:10.000Z,100489
2018-05-24T17:07:10.000Z,100499
2018-05-24T17:08:55.000Z,100492
2018-05-24T17:11:10.000Z,100496
2018-05-24T17:12:10.000Z,100494
2018-05-24T17:13:10.000Z,100499
2018-05-24T17:14:55.000Z,100493
2018-05-24T17:16:10.000Z,100497
2018-05-24T17:17:55.000Z,100494
2018-05-24T17:19:10.000Z,100497
2018-05-24T17:20:10.000Z,100494
2018-05-24T17:22:10.000Z,100495
2018-05-24T17:23:55.000Z,100495
2018-05-24T17:25:10.000Z,100494
2018-05-24T17:26:10.000Z,100493
2018-05-24T17:28:10.000Z,100496
2018-05-24T17:30:10.000Z,100498
2018-05-24T17:32:10.000Z,100501
2018-05-24T17:34:10.000Z,100501
2018-05-24T17:36:10.000Z,100501
2018-05-24T17:38:11.000Z,100493
2018-05-24T17:40:11.000Z,100505
2018-05-24T17:42:11.000Z,100503
2018-05-24T17:43:40.000Z,100496
2018-05-24T17:45:11.000Z,100502
2018-05-24T17:47:11.000Z,100500
2018-05-24T17:49:11.000Z,100492
2018-05-24T17:50:56.000Z,100495
2018-05-24T17:52:11.000Z,100499
2018-05-24T17:53:11.000Z,100497
2018-05-24T17:54:11.000Z,100495
2018-05-24T17:56:11.000Z,100495
2018-05-24T17:57:11.000Z,100496
2018-05-24T17:58:40.000Z,100501
2018-05-24T18:00:11.000Z,100502
2018-05-24T18:02:11.000Z,100506
2018-05-24T18:04:11.000Z,100509
2018-05-24T18:05:11.000Z,100509
2018-05-24T18:07:11.000Z,100508
2018-05-24T18:08:11.000Z,100515
2018-05-24T18:10:11.000Z,100511
2018-05-24T18:12:11.000Z,100510
2018-05-24T18:13:11.000Z,100516
2018-05-24T18:14:11.000Z,100518
2018-05-24T18:16:11.000Z,100514
2018-05-24T18:17:11.000Z,100519
2018-05-24T18:18:11.000Z,100519
2018-05-24T18:19:11.000Z,100518
2018-05-24T18:21:11.000Z,100515
2018-05-24T18:22:11.000Z,100511
2018-05-24T18:23:11.000Z,100513
2018-05-24T18:24:56.000Z,100515
2018-05-24T18:25:56.000Z,100514
2018-05-24T18:27:11.000Z,100510
2018-05-24T18:29:11.000Z,100516
2018-05-24T18:30:11.000Z,100516
2018-05-24T18:32:11.000Z,100519
2018-05-24T18:34:11.000Z,100518
2018-05-24T18:36:11.000Z,100516
2018-05-24T18:38:11.000Z,100517
2018-05-24T18:39:11.000Z,100515
2018-05-24T18:40:55.000Z,100515
2018-05-24T18:42:10.000Z,100513
2018-05-24T18:44:10.000Z,100519
2018-05-24T18:46:10.000Z,100520
2018-05-24T18:47:10.000Z,100525
2018-05-24T18:49:10.000Z,100528
2018-05-24T18:51:10.000Z,100529
2018-05-24T18:52:55.000Z,100535
2018-05-24T18:54:10.000Z,100530
2018-05-24T18:55:10.000Z,100533
2018-05-24T18:56:10.000Z,100541
2018-05-24T18:58:10.000Z,100532
2018-05-24T19:00:10.000Z,100531
2018-05-24T19:02:10.000Z,100542
2018-05-24T19:03:55.000Z,100538
2018-05-24T19:05:10.000Z,100545
2018-05-24T19:07:10.000Z,100540
2018-05-24T19:08:10.000Z,100543
2018-05-24T19:10:10.000Z,100538
2018-05-24T19:12:10.000Z,100543
2018-05-24T19:13:10.000Z,100540
2018-05-24T19:14:55.000Z,100536
2018-05-24T19:16:10.000Z,100533
2018-05-24T19:18:10.000Z,100545
2018-05-24T19:19:40.000Z,100546
2018-05-24T19:21:10.000Z,100540
2018-05-24T19:23:10.000Z,100546
2018-05-24T19:24:55.000Z,100546
2018-05-24T19:27:10.000Z,100547
2018-05-24T19:28:10.000Z,100548
2018-05-24T19:29:10.000Z,100545
2018-05-24T19:31:10.000Z,100553
2018-05-24T19:32:10.000Z,100551
2018-05-24T19:34:10.000Z,100547
2018-05-24T19:35:10.000Z,100556
2018-05-24T19:37:10.000Z,100555
2018-05-24T19:38:10.000Z,100558
2018-05-24T19:40:10.000Z,100542
2018-05-24T19:41:55.000Z,100550
2018-05-24T19:43:10.000Z,100546
2018-05-24T19:44:40.000Z,100545
2018-05-24T19:46:10.000Z,100555
2018-05-24T19:47:40.000Z,100509
2018-05-24T19:49:10.000Z,100551
2018-05-24T19:51:10.000Z,100554
2018-05-24T19:52:10.000Z,100551
2018-05-24T19:53:55.000Z,100550
2018-05-24T19:55:10.000Z,100553
2018-05-24T19:57:10.000Z,100555
2018-05-24T19:59:10.000Z,100559
2018-05-24T20:01:10.000Z,100563
2018-05-24T20:03:10.000Z,100561
2018-05-24T20:06:10.000Z,100570
2018-05-24T20:07:55.000Z,100562
2018-05-24T20:09:10.000Z,100562
2018-05-24T20:11:10.000Z,100568
2018-05-24T20:12:10.000Z,100572
2018-05-24T20:14:10.000Z,100578
2018-05-24T20:15:10.000Z,100573
2018-05-24T20:16:55.000Z,100571
2018-05-24T20:18:10.000Z,100571
2018-05-24T20:20:10.000Z,100575
2018-05-24T20:22:10.000Z,100583